KCRW Airport Diagram

We have created a template for each of the higher traffic airports in the vZID airspace. They include KCMH, KCRW, KCVG, KDAY, KIND, KLEX and KSDF. You wil find usefull information including the airport diagram, weather, and specific airport procedures.

KCRW Weather

[Source: ADDS]
METAR
KCRW 211754Z 00000KT 10SM BKN030 19/11 A3009 RMK AO2 SLP184 T01890106 10200 20122 56013 =
KCRW 211725Z 2118/2218 03004KT P6SM BKN030 BKN200 FM212100 03005KT P6SM SCT150 FM221400 16006KT P6SM FEW060
TAF
KCRW 211725Z 2118/2218 03004KT P6SM BKN030 BKN200 FM212100 03005KT P6SM SCT150 FM221400 16006KT P6SM FEW060 =

KCRW Operations

Calm wind runway up to 10kts: Rw 23

 

JSN Epic template designed by JoomlaShine.com